createdAt,value
2022-10-23T00:01:51.502Z,6.90
2022-10-23T00:04:21.059Z,6.93
2022-10-23T00:06:49.369Z,5.70
2022-10-23T00:09:23.187Z,6.67
2022-10-23T00:11:53.327Z,5.00
2022-10-23T00:14:23.168Z,5.10
2022-10-23T00:16:51.153Z,6.03
2022-10-23T00:19:19.068Z,5.40
2022-10-23T00:21:47.045Z,4.93
2022-10-23T00:24:14.936Z,5.30
2022-10-23T00:26:43.017Z,5.17
2022-10-23T00:29:12.738Z,5.27
2022-10-23T00:31:40.757Z,5.53
2022-10-23T00:34:09.259Z,4.87
2022-10-23T00:36:37.746Z,5.40
2022-10-23T00:39:06.088Z,5.37
2022-10-23T00:41:34.054Z,4.70
2022-10-23T00:44:06.674Z,4.60
2022-10-23T00:46:36.165Z,4.90
2022-10-23T00:49:05.300Z,5.00
2022-10-23T00:51:37.503Z,4.80
2022-10-23T00:54:23.501Z,5.27
2022-10-23T00:56:52.877Z,5.27
2022-10-23T00:59:20.764Z,5.30
2022-10-23T01:01:50.194Z,5.40
2022-10-23T01:04:18.275Z,5.13
2022-10-23T01:06:52.112Z,4.20
2022-10-23T01:09:26.478Z,5.87
2022-10-23T01:11:59.102Z,4.83
2022-10-23T01:14:31.023Z,5.07
2022-10-23T01:17:04.768Z,4.93
2022-10-23T01:19:44.457Z,5.30
2022-10-23T01:22:22.108Z,5.00
2022-10-23T01:24:52.876Z,5.10
2022-10-23T01:27:24.068Z,5.97
2022-10-23T01:30:00.402Z,6.27
2022-10-23T01:32:31.728Z,5.60
2022-10-23T01:35:04.115Z,5.53
2022-10-23T01:37:35.908Z,5.87
2022-10-23T01:40:07.252Z,5.20
2022-10-23T01:42:38.912Z,5.80
2022-10-23T01:45:11.003Z,5.20
2022-10-23T01:47:39.963Z,5.23
2022-10-23T01:50:09.643Z,6.20
2022-10-23T01:52:38.272Z,7.47
2022-10-23T01:55:07.470Z,7.40
2022-10-23T01:57:37.591Z,6.60
2022-10-23T02:00:07.961Z,6.83
2022-10-23T02:02:37.306Z,6.40
2022-10-23T02:05:08.408Z,5.60
2022-10-23T02:07:36.757Z,7.90
2022-10-23T02:10:05.490Z,7.67
2022-10-23T02:12:41.685Z,7.27
2022-10-23T02:15:14.158Z,7.40
2022-10-23T02:17:50.047Z,8.73
2022-10-23T02:20:22.261Z,7.87
2022-10-23T02:22:56.717Z,6.87
2022-10-23T02:25:29.587Z,5.80
2022-10-23T02:28:01.058Z,6.10
2022-10-23T02:30:29.745Z,6.00
2022-10-23T02:32:58.588Z,5.90
2022-10-23T02:35:26.777Z,5.90
2022-10-23T02:37:55.909Z,5.57
2022-10-23T02:40:25.421Z,5.60
2022-10-23T02:42:59.668Z,4.80
2022-10-23T02:45:31.668Z,4.73
2022-10-23T02:48:04.180Z,5.27
2022-10-23T02:50:39.070Z,4.17
2022-10-23T02:53:13.586Z,6.23
2022-10-23T02:55:48.057Z,5.70
2022-10-23T02:58:21.518Z,5.17
2022-10-23T03:00:53.505Z,5.83
2022-10-23T03:03:23.836Z,6.00
2022-10-23T03:05:51.796Z,4.90
2022-10-23T03:08:19.676Z,5.33
2022-10-23T03:13:18.239Z,5.57
2022-10-23T03:15:46.175Z,4.07
2022-10-23T03:18:14.320Z,4.50
2022-10-23T03:20:42.193Z,5.37
2022-10-23T03:23:13.244Z,8.27
2022-10-23T03:25:41.140Z,6.50
2022-10-23T03:28:09.019Z,6.30
2022-10-23T03:30:38.257Z,5.27
2022-10-23T03:33:06.148Z,5.03
2022-10-23T03:35:34.017Z,6.23
2022-10-23T03:38:01.912Z,5.10
2022-10-23T03:40:29.790Z,5.10
2022-10-23T03:42:57.682Z,5.20
2022-10-23T03:45:25.548Z,5.23
2022-10-23T03:47:54.838Z,5.40
2022-10-23T03:50:22.737Z,4.73
2022-10-23T03:52:50.671Z,5.80
2022-10-23T03:55:19.000Z,4.97
2022-10-23T03:57:46.890Z,5.03
2022-10-23T04:00:15.214Z,5.13
2022-10-23T04:02:43.242Z,5.07
2022-10-23T04:05:12.804Z,4.70
2022-10-23T04:07:40.793Z,5.40
2022-10-23T04:10:09.365Z,4.70
2022-10-23T04:12:37.347Z,4.90
2022-10-23T04:15:05.973Z,4.73
2022-10-23T04:17:33.854Z,5.20
2022-10-23T04:20:01.833Z,7.87
2022-10-23T04:22:31.156Z,6.10
2022-10-23T04:24:59.253Z,5.23
2022-10-23T04:27:27.123Z,4.70
2022-10-23T04:29:56.912Z,4.20
2022-10-23T04:32:27.038Z,5.77
2022-10-23T04:34:54.910Z,4.50
2022-10-23T04:37:22.844Z,3.80
2022-10-23T04:39:52.161Z,4.23
2022-10-23T04:42:20.206Z,4.60
2022-10-23T04:44:48.093Z,4.00
2022-10-23T04:47:16.017Z,4.10
2022-10-23T04:49:43.877Z,4.60
2022-10-23T04:52:11.782Z,4.03
2022-10-23T04:54:40.050Z,6.10
2022-10-23T04:57:09.326Z,6.30
2022-10-23T04:59:37.339Z,4.60
2022-10-23T05:02:07.664Z,4.37
2022-10-23T05:04:35.551Z,5.43
2022-10-23T05:07:03.449Z,5.30
2022-10-23T05:09:31.322Z,5.00
2022-10-23T05:11:59.191Z,5.70
2022-10-23T05:14:28.519Z,5.03
2022-10-23T05:17:00.148Z,6.00
2022-10-23T05:19:30.996Z,8.80
2022-10-23T05:21:59.274Z,8.17
2022-10-23T05:24:27.547Z,8.40
2022-10-23T05:26:55.560Z,8.17
2022-10-23T05:29:23.700Z,7.13
2022-10-23T05:31:56.198Z,11.37
2022-10-23T05:34:26.412Z,7.40
2022-10-23T05:36:54.574Z,9.27
2022-10-23T05:39:22.479Z,10.40
2022-10-23T05:41:51.198Z,9.97
2022-10-23T05:44:19.038Z,9.70
2022-10-23T05:46:46.867Z,10.10
2022-10-23T05:49:16.106Z,9.20
2022-10-23T05:51:43.935Z,7.20
2022-10-23T05:54:11.810Z,6.50
2022-10-23T05:56:41.783Z,6.70
2022-10-23T05:59:10.144Z,5.60
2022-10-23T06:01:38.451Z,6.90
2022-10-23T06:04:06.936Z,6.67
2022-10-23T06:06:36.786Z,6.97
2022-10-23T06:09:04.970Z,7.17
2022-10-23T06:11:32.831Z,8.20
2022-10-23T06:14:01.145Z,8.93
2022-10-23T06:16:29.217Z,7.03
2022-10-23T06:18:57.475Z,22.40
2022-10-23T06:21:25.909Z,18.33
2022-10-23T06:23:56.094Z,11.20
2022-10-23T06:26:24.351Z,12.97
2022-10-23T06:28:52.187Z,11.60
2022-10-23T06:31:21.751Z,10.20
2022-10-23T06:33:49.580Z,13.30
2022-10-23T06:36:17.465Z,21.77
2022-10-23T06:38:45.443Z,19.40
2022-10-23T06:41:16.825Z,21.43
2022-10-23T06:43:44.986Z,15.53
2022-10-23T06:46:12.848Z,38.17
2022-10-23T06:48:42.635Z,49.73
2022-10-23T06:51:12.808Z,23.33
2022-10-23T06:53:41.160Z,52.20
2022-10-23T06:56:09.667Z,25.50
2022-10-23T06:58:40.052Z,11.90
2022-10-23T07:01:09.763Z,30.50
2022-10-23T07:03:37.706Z,23.90
2022-10-23T07:06:07.705Z,18.57
2022-10-23T07:08:35.660Z,25.23
2022-10-23T07:11:05.311Z,7.83
2022-10-23T07:13:34.314Z,16.23
2022-10-23T07:16:12.362Z,5.00
2022-10-23T07:18:40.333Z,13.50
2022-10-23T07:21:08.181Z,3.90
2022-10-23T07:23:36.087Z,7.93
2022-10-23T07:26:08.755Z,5.50
2022-10-23T07:28:37.706Z,14.80
2022-10-23T07:31:05.922Z,4.80
2022-10-23T07:33:35.159Z,5.73
2022-10-23T07:36:05.255Z,5.00
2022-10-23T07:38:33.257Z,8.87
2022-10-23T07:41:01.336Z,6.00
2022-10-23T07:43:29.255Z,4.47
2022-10-23T07:45:57.333Z,5.23
2022-10-23T07:48:27.215Z,3.40
2022-10-23T07:51:00.863Z,6.37
2022-10-23T07:53:29.008Z,2.83
2022-10-23T07:55:58.224Z,1.90
2022-10-23T07:58:27.290Z,1.60
2022-10-23T08:00:58.495Z,3.23
2022-10-23T08:03:26.836Z,4.90
2022-10-23T08:05:56.775Z,2.30
2022-10-23T08:08:25.760Z,1.80
2022-10-23T08:10:55.583Z,2.50
2022-10-23T08:13:23.532Z,2.00
2022-10-23T08:15:52.309Z,2.00
2022-10-23T08:18:20.405Z,2.40
2022-10-23T08:20:49.154Z,2.40
2022-10-23T08:23:19.379Z,23.20
2022-10-23T08:25:47.747Z,5.30
2022-10-23T08:28:16.586Z,3.43
2022-10-23T08:30:44.477Z,2.20
2022-10-23T08:33:12.337Z,4.00
2022-10-23T08:35:40.675Z,2.37
2022-10-23T08:38:09.420Z,2.27
2022-10-23T08:40:39.132Z,4.87
2022-10-23T08:43:12.464Z,1.77
2022-10-23T08:45:44.316Z,1.60
2022-10-23T08:48:17.168Z,4.60
2022-10-23T08:50:49.332Z,2.73
2022-10-23T08:53:21.699Z,1.40
2022-10-23T08:55:58.159Z,1.40
2022-10-23T08:58:31.950Z,4.37
2022-10-23T09:01:00.002Z,6.03
2022-10-23T09:03:28.297Z,2.63
2022-10-23T09:06:08.980Z,8.00
2022-10-23T09:08:46.243Z,2.43
2022-10-23T09:11:19.432Z,8.23
2022-10-23T09:14:08.912Z,13.10
2022-10-23T09:16:45.101Z,2.00
2022-10-23T09:19:15.931Z,2.00
2022-10-23T09:21:46.050Z,4.03
2022-10-23T09:24:17.902Z,4.07
2022-10-23T09:26:49.828Z,1.40
2022-10-23T09:29:23.955Z,1.20
2022-10-23T09:31:53.143Z,1.80
2022-10-23T09:34:23.592Z,1.47
2022-10-23T09:36:53.596Z,1.37
2022-10-23T09:39:28.181Z,1.30
2022-10-23T09:41:57.624Z,1.40
2022-10-23T09:44:26.511Z,1.53
2022-10-23T09:46:56.267Z,5.77
2022-10-23T09:49:26.199Z,0.93
2022-10-23T09:52:03.128Z,0.93
2022-10-23T09:54:35.038Z,0.87
2022-10-23T09:57:16.985Z,1.20
2022-10-23T09:59:45.118Z,0.70
2022-10-23T10:02:22.716Z,0.70
2022-10-23T10:04:50.581Z,0.97
2022-10-23T10:07:21.622Z,0.63
2022-10-23T10:09:49.966Z,0.93
2022-10-23T10:12:31.705Z,0.90
2022-10-23T10:15:07.380Z,1.90
2022-10-23T10:17:40.944Z,0.80
2022-10-23T10:20:20.505Z,1.30
2022-10-23T10:22:52.463Z,0.93
2022-10-23T10:25:23.487Z,0.73
2022-10-23T10:28:04.544Z,0.70
2022-10-23T10:30:38.453Z,0.93
2022-10-23T10:33:10.979Z,2.60
2022-10-23T10:35:42.448Z,1.50
2022-10-23T10:38:31.128Z,1.00
2022-10-23T10:41:23.847Z,1.00
2022-10-23T10:44:01.690Z,0.60
2022-10-23T10:46:32.503Z,0.57
2022-10-23T10:49:01.793Z,1.50
2022-10-23T10:51:31.800Z,0.90
2022-10-23T10:54:08.174Z,0.90
2022-10-23T10:56:39.654Z,1.13
2022-10-23T10:59:15.307Z,0.73
2022-10-23T11:01:47.404Z,1.30
2022-10-23T11:04:21.383Z,1.10
2022-10-23T11:06:53.456Z,1.17
2022-10-23T11:09:23.040Z,1.40
2022-10-23T11:11:51.183Z,1.10
2022-10-23T11:14:22.660Z,1.33
2022-10-23T11:16:52.446Z,0.80
2022-10-23T11:19:23.575Z,0.93
2022-10-23T11:21:58.167Z,0.80
2022-10-23T11:24:49.041Z,1.10
2022-10-23T11:27:28.797Z,0.97
2022-10-23T11:30:18.981Z,0.70
2022-10-23T11:33:02.255Z,0.90
2022-10-23T11:35:44.287Z,0.87
2022-10-23T11:38:18.044Z,0.70
2022-10-23T11:40:47.246Z,0.80
2022-10-23T11:43:15.384Z,1.10
2022-10-23T11:45:44.621Z,1.20
2022-10-23T11:48:23.705Z,0.90
2022-10-23T11:50:54.925Z,1.00
2022-10-23T11:53:28.864Z,0.90
2022-10-23T11:56:00.150Z,0.70
2022-10-23T11:58:32.075Z,1.10
2022-10-23T12:01:04.897Z,0.70
2022-10-23T12:03:42.913Z,1.03
2022-10-23T12:06:23.055Z,1.30
2022-10-23T12:08:57.419Z,0.73
2022-10-23T12:11:40.135Z,0.97
2022-10-23T12:14:26.746Z,1.03
2022-10-23T12:16:56.212Z,0.93
2022-10-23T12:19:25.539Z,1.10
2022-10-23T12:21:54.695Z,1.60
2022-10-23T12:24:39.827Z,1.40
2022-10-23T12:27:32.560Z,1.30
2022-10-23T12:30:16.599Z,1.20
2022-10-23T12:32:58.813Z,1.27
2022-10-23T12:35:59.629Z,2.67
2022-10-23T12:38:32.448Z,0.83
2022-10-23T12:41:12.018Z,0.90
2022-10-23T12:43:41.316Z,1.97
2022-10-23T12:46:26.541Z,1.90
2022-10-23T12:48:57.997Z,1.60
2022-10-23T12:51:29.079Z,5.17
2022-10-23T12:53:57.138Z,1.27
2022-10-23T12:56:28.523Z,1.20
2022-10-23T12:59:00.958Z,4.53
2022-10-23T13:01:29.986Z,2.30
2022-10-23T13:04:12.592Z,0.63
2022-10-23T13:06:40.944Z,1.30
2022-10-23T13:09:19.184Z,1.00
2022-10-23T13:11:47.220Z,1.70
2022-10-23T13:14:15.854Z,1.00
2022-10-23T13:16:43.744Z,1.07
2022-10-23T13:19:25.940Z,1.00
2022-10-23T13:21:53.877Z,0.93
2022-10-23T13:24:23.162Z,1.23
2022-10-23T13:26:51.165Z,1.23
2022-10-23T13:29:21.478Z,1.60
2022-10-23T13:31:49.729Z,1.40
2022-10-23T13:34:27.135Z,1.30
2022-10-23T13:36:58.302Z,1.20
2022-10-23T13:39:28.178Z,1.20
2022-10-23T13:41:56.102Z,0.90
2022-10-23T13:44:25.189Z,1.10
2022-10-23T13:46:53.373Z,1.37
2022-10-23T13:49:21.602Z,1.00
2022-10-23T13:51:52.789Z,1.00
2022-10-23T13:54:22.990Z,1.27
2022-10-23T13:56:51.256Z,1.20
2022-10-23T13:59:19.757Z,1.33
2022-10-23T14:01:48.480Z,2.53
2022-10-23T14:04:18.485Z,2.50
2022-10-23T14:06:46.567Z,1.30
2022-10-23T14:09:17.316Z,1.27
2022-10-23T14:11:45.758Z,1.80
2022-10-23T14:14:13.727Z,1.47
2022-10-23T14:16:41.605Z,1.80
2022-10-23T14:19:10.423Z,1.50
2022-10-23T14:21:38.340Z,1.50
2022-10-23T14:24:06.728Z,1.53
2022-10-23T14:26:35.979Z,1.63
2022-10-23T14:29:07.648Z,1.43
2022-10-23T14:31:38.103Z,1.57
2022-10-23T14:34:06.027Z,1.77
2022-10-23T14:36:43.283Z,5.50
2022-10-23T14:39:18.766Z,2.33
2022-10-23T14:41:48.200Z,1.80
2022-10-23T14:44:16.180Z,1.90
2022-10-23T14:46:44.101Z,1.50
2022-10-23T14:49:12.176Z,1.60
2022-10-23T14:51:40.068Z,1.93
2022-10-23T14:54:09.217Z,2.00
2022-10-23T14:56:39.454Z,1.80
2022-10-23T14:59:10.709Z,2.50
2022-10-23T15:01:43.897Z,2.30
2022-10-23T15:04:14.439Z,2.70
2022-10-23T15:06:42.681Z,1.70
2022-10-23T15:09:10.654Z,3.27
2022-10-23T15:11:38.573Z,1.83
2022-10-23T15:14:08.075Z,2.00
2022-10-23T15:16:41.309Z,2.00
2022-10-23T15:19:13.495Z,2.13
2022-10-23T15:21:45.277Z,2.00
2022-10-23T15:24:13.157Z,2.70
2022-10-23T15:26:43.079Z,2.57
2022-10-23T15:29:12.900Z,2.10
2022-10-23T15:31:49.645Z,2.20
2022-10-23T15:34:19.310Z,2.23
2022-10-23T15:36:47.994Z,2.40
2022-10-23T15:39:17.331Z,2.27
2022-10-23T15:41:45.457Z,2.13
2022-10-23T15:44:18.099Z,2.10
2022-10-23T15:46:45.997Z,2.10
2022-10-23T15:49:14.234Z,2.03
2022-10-23T15:51:42.685Z,2.47
2022-10-23T15:54:13.132Z,2.37
2022-10-23T15:56:41.022Z,3.10
2022-10-23T15:59:08.988Z,2.97
2022-10-23T16:01:38.417Z,2.83
2022-10-23T16:04:06.529Z,2.90
2022-10-23T16:06:34.449Z,3.20
2022-10-23T16:09:02.578Z,3.90
2022-10-23T16:11:32.213Z,4.20
2022-10-23T16:14:01.740Z,4.73
2022-10-23T16:16:29.802Z,5.43
2022-10-23T16:19:01.478Z,5.97
2022-10-23T16:21:30.708Z,4.60
2022-10-23T16:24:00.531Z,4.20
2022-10-23T16:26:29.672Z,5.10
2022-10-23T16:28:59.418Z,4.40
2022-10-23T16:31:27.692Z,4.97
2022-10-23T16:36:25.073Z,3.80
2022-10-23T16:38:52.942Z,4.50
2022-10-23T16:41:20.825Z,4.60
2022-10-23T16:43:48.691Z,4.50
2022-10-23T16:46:17.972Z,4.60
2022-10-23T16:48:46.023Z,4.53
2022-10-23T16:51:15.870Z,4.70
2022-10-23T16:53:45.293Z,4.53
2022-10-23T16:56:15.177Z,6.00
2022-10-23T16:58:43.434Z,4.93
2022-10-23T17:01:13.486Z,5.37
2022-10-23T17:03:43.489Z,4.87
2022-10-23T17:06:12.984Z,5.10
2022-10-23T17:08:41.088Z,4.43
2022-10-23T17:11:12.106Z,5.23
2022-10-23T17:13:41.708Z,5.70
2022-10-23T17:16:11.950Z,5.60
2022-10-23T17:18:43.721Z,6.80
2022-10-23T17:21:12.459Z,6.73
2022-10-23T17:23:40.357Z,7.80
2022-10-23T17:26:10.709Z,7.80
2022-10-23T17:28:41.646Z,8.83
2022-10-23T17:31:14.349Z,11.23
2022-10-23T17:33:43.120Z,10.37
2022-10-23T17:36:11.974Z,8.80
2022-10-23T17:38:41.126Z,12.10
2022-10-23T17:41:12.236Z,11.97
2022-10-23T17:43:40.641Z,11.70
2022-10-23T17:46:10.132Z,11.30
2022-10-23T17:48:39.312Z,12.10
2022-10-23T17:51:09.673Z,11.70
2022-10-23T17:53:38.957Z,11.67
2022-10-23T17:56:08.971Z,13.60
2022-10-23T17:58:38.237Z,14.60
2022-10-23T18:01:06.761Z,16.37
2022-10-23T18:03:37.252Z,15.87
2022-10-23T18:06:08.657Z,18.20
2022-10-23T18:08:36.888Z,17.90
2022-10-23T18:11:05.153Z,18.20
2022-10-23T18:13:33.831Z,19.13
2022-10-23T18:16:03.639Z,19.00
2022-10-23T18:18:31.610Z,19.07
2022-10-23T18:20:59.892Z,20.90
2022-10-23T18:23:28.242Z,17.83
2022-10-23T18:25:56.190Z,16.10
2022-10-23T18:28:24.124Z,15.80
2022-10-23T18:30:54.671Z,16.67
2022-10-23T18:33:26.743Z,19.13
2022-10-23T18:35:54.658Z,19.80
2022-10-23T18:38:22.580Z,19.57
2022-10-23T18:40:55.589Z,19.33
2022-10-23T18:43:42.706Z,19.90
2022-10-23T18:46:11.980Z,18.23
2022-10-23T18:48:41.461Z,17.93
2022-10-23T18:51:15.826Z,18.30
2022-10-23T18:53:46.658Z,17.27
2022-10-23T18:56:15.472Z,16.30
2022-10-23T18:58:43.457Z,15.70
2022-10-23T19:01:11.815Z,18.93
2022-10-23T19:03:41.143Z,20.47
2022-10-23T19:06:09.539Z,21.70
2022-10-23T19:08:38.122Z,20.67
2022-10-23T19:11:07.368Z,21.10
2022-10-23T19:13:39.100Z,17.33
2022-10-23T19:16:10.393Z,21.10
2022-10-23T19:18:41.350Z,21.73
2022-10-23T19:21:09.293Z,21.37
2022-10-23T19:23:37.641Z,20.70
2022-10-23T19:26:08.803Z,23.03
2022-10-23T19:28:37.854Z,22.23
2022-10-23T19:31:07.630Z,21.97
2022-10-23T19:33:36.183Z,21.60
2022-10-23T19:36:08.806Z,22.60
2022-10-23T19:38:40.296Z,23.93
2022-10-23T19:41:08.484Z,21.23
2022-10-23T19:43:37.728Z,19.13
2022-10-23T19:46:09.483Z,21.17
2022-10-23T19:48:42.510Z,23.20
2022-10-23T19:51:13.952Z,24.00
2022-10-23T19:53:43.034Z,20.10
2022-10-23T19:56:12.476Z,19.87
2022-10-23T19:58:41.223Z,19.27
2022-10-23T20:01:11.358Z,17.93
2022-10-23T20:03:40.187Z,18.77
2022-10-23T20:06:11.718Z,18.67
2022-10-23T20:08:39.681Z,22.67
2022-10-23T20:11:08.221Z,29.77
2022-10-23T20:13:36.457Z,29.90
2022-10-23T20:16:04.590Z,28.30
2022-10-23T20:18:32.549Z,26.40
2022-10-23T20:21:02.334Z,26.20
2022-10-23T20:23:31.616Z,21.67
2022-10-23T20:26:05.597Z,20.23
2022-10-23T20:28:33.797Z,19.60
2022-10-23T20:31:03.275Z,22.00
2022-10-23T20:33:31.175Z,21.07
2022-10-23T20:35:59.153Z,22.30
2022-10-23T20:38:27.057Z,20.27
2022-10-23T20:41:00.313Z,23.00
2022-10-23T20:43:28.280Z,23.50
2022-10-23T20:45:56.174Z,25.47
2022-10-23T20:48:24.045Z,24.97
2022-10-23T20:50:52.044Z,26.50
2022-10-23T20:53:19.943Z,22.60
2022-10-23T20:55:47.821Z,24.10
2022-10-23T20:58:17.077Z,24.27
2022-10-23T21:00:45.053Z,25.40
2022-10-23T21:03:13.014Z,23.27
2022-10-23T21:05:40.892Z,19.80
2022-10-23T21:08:08.801Z,20.63
2022-10-23T21:10:36.659Z,22.60
2022-10-23T21:13:04.552Z,21.60
2022-10-23T21:15:34.839Z,20.70
2022-10-23T21:18:13.153Z,21.60
2022-10-23T21:20:50.666Z,21.63
2022-10-23T21:23:18.630Z,19.27
2022-10-23T21:28:15.357Z,19.77
2022-10-23T21:30:44.635Z,19.20
2022-10-23T21:33:12.557Z,23.00
2022-10-23T21:35:47.485Z,27.27
2022-10-23T21:38:26.253Z,31.50
2022-10-23T21:40:54.174Z,32.70
2022-10-23T21:43:22.195Z,32.73
2022-10-23T21:45:54.302Z,35.07
2022-10-23T21:48:23.397Z,30.30
2022-10-23T21:50:51.291Z,22.43
2022-10-23T21:53:19.202Z,25.53
2022-10-23T21:55:47.079Z,27.70
2022-10-23T21:58:15.013Z,29.10
2022-10-23T22:00:42.903Z,25.10
2022-10-23T22:03:12.194Z,26.53
2022-10-23T22:05:40.101Z,25.50
2022-10-23T22:08:08.004Z,25.57
2022-10-23T22:10:36.121Z,28.90
2022-10-23T22:13:03.986Z,26.10
2022-10-23T22:15:31.937Z,30.50
2022-10-23T22:18:00.473Z,28.23
2022-10-23T22:20:29.793Z,29.33
2022-10-23T22:22:57.682Z,31.77
2022-10-23T22:25:25.592Z,27.73
2022-10-23T22:27:53.530Z,29.80
2022-10-23T22:30:21.429Z,26.37
2022-10-23T22:32:49.309Z,29.30
2022-10-23T22:35:17.786Z,29.30
2022-10-23T22:37:47.012Z,24.80
2022-10-23T22:40:15.049Z,25.50
2022-10-23T22:42:43.191Z,26.07
2022-10-23T22:45:11.444Z,27.23
2022-10-23T22:47:39.369Z,24.90
2022-10-23T22:50:08.398Z,28.47
2022-10-23T22:52:36.293Z,25.43
2022-10-23T22:55:06.552Z,26.07
2022-10-23T22:57:34.494Z,26.20
2022-10-23T23:00:02.432Z,24.27
2022-10-23T23:02:30.355Z,27.57
2022-10-23T23:04:58.261Z,26.10
2022-10-23T23:07:26.177Z,25.37
2022-10-23T23:09:54.038Z,23.27
2022-10-23T23:12:23.313Z,24.43
2022-10-23T23:14:51.181Z,25.97
2022-10-23T23:17:19.129Z,25.27
2022-10-23T23:19:47.005Z,26.17
2022-10-23T23:22:14.929Z,24.37
2022-10-23T23:24:42.842Z,23.87
2022-10-23T23:27:10.742Z,22.97
2022-10-23T23:29:40.020Z,23.93
2022-10-23T23:32:07.921Z,23.70
2022-10-23T23:34:35.845Z,21.93
2022-10-23T23:37:03.786Z,22.57
2022-10-23T23:39:31.696Z,22.40
2022-10-23T23:41:59.596Z,21.50
2022-10-23T23:44:27.544Z,24.10
2022-10-23T23:46:56.936Z,22.93
2022-10-23T23:49:24.865Z,23.73
2022-10-23T23:51:52.805Z,22.40
2022-10-23T23:54:20.689Z,21.30
2022-10-23T23:56:48.564Z,24.37
2022-10-23T23:59:16.451Z,22.00
